Time;durP1;ratioP1;P1;durP2;ratioP2;P2;SDS_P1;SDS_P2;PMS_P1;PMS_P2;Temp;Humidity;BMP_temperature;BMP_pressure;BME280_temperature;BME280_humidity;BME280_pressure;Samples;Min_cycle;Max_cycle;Signal;HPM_P1;HPM_P2
2021/05/20 00:02:03;;;;;;;10.80;9.70;;;;;;;11.64;64.31;101404.69;5120778;28;20406;-66
2021/05/20 00:04:29;;;;;;;17.83;14.90;;;;;;;11.76;64.73;101404.00;5121309;28;20509;-66
2021/05/20 00:06:54;;;;;;;12.00;9.47;;;;;;;11.67;63.91;101404.72;5120786;28;20179;-64
2021/05/20 00:09:19;;;;;;;9.87;8.93;;;;;;;11.90;63.93;101406.81;5120117;28;20175;-66
2021/05/20 00:11:44;;;;;;;9.53;8.63;;;;;;;12.12;63.13;101392.34;5120852;28;20171;-65
2021/05/20 00:14:10;;;;;;;10.73;8.30;;;;;;;11.94;63.72;101403.41;5120492;28;20582;-66
2021/05/20 00:16:35;;;;;;;9.80;8.80;;;;;;;11.83;63.88;101402.38;5120452;28;20207;-65
2021/05/20 00:19:00;;;;;;;8.37;7.77;;;;;;;11.83;63.45;101389.31;5121110;28;20260;-65
2021/05/20 00:21:26;;;;;;;9.40;8.20;;;;;;;12.11;62.97;101399.31;5120444;28;20178;-65
2021/05/20 00:23:51;;;;;;;13.20;11.90;;;;;;;11.93;63.55;101402.53;5120863;28;20203;-66
2021/05/20 00:26:16;;;;;;;9.30;8.40;;;;;;;12.11;62.59;101396.72;5121379;28;20444;-66
2021/05/20 00:28:42;;;;;;;10.47;9.37;;;;;;;12.07;63.41;101388.78;5120343;28;20175;-66
2021/05/20 00:31:07;;;;;;;9.10;8.30;;;;;;;11.83;63.44;101392.78;5120349;28;20174;-66
2021/05/20 00:33:33;;;;;;;7.27;6.60;;;;;;;11.74;63.55;101405.69;5120671;28;20195;-66
2021/05/20 00:35:58;;;;;;;8.27;7.50;;;;;;;11.67;64.09;101396.88;5120272;28;20199;-66
2021/05/20 00:38:23;;;;;;;7.67;7.07;;;;;;;11.66;63.49;101395.13;5120067;28;20187;-66
2021/05/20 00:40:48;;;;;;;9.17;7.80;;;;;;;11.69;63.79;101395.19;5120362;28;20159;-66
2021/05/20 00:43:14;;;;;;;9.63;8.43;;;;;;;11.83;63.29;101398.00;5119913;28;20195;-66
2021/05/20 00:45:39;;;;;;;9.93;8.93;;;;;;;11.77;63.20;101401.41;5119976;28;20202;-66
2021/05/20 00:48:05;;;;;;;10.07;9.03;;;;;;;11.77;63.08;101401.41;5120479;28;20163;-65
2021/05/20 00:50:30;;;;;;;11.30;8.90;;;;;;;11.91;63.30;101404.22;5119980;28;20171;-65
2021/05/20 00:52:55;;;;;;;8.03;7.33;;;;;;;11.56;63.72;101406.28;5119639;28;20563;-65
2021/05/20 00:55:23;;;;;;;8.73;7.80;;;;;;;11.78;63.14;101410.13;5120208;28;20191;-65
2021/05/20 00:57:49;;;;;;;10.73;9.70;;;;;;;11.82;63.32;101403.22;5119737;28;20248;-66
2021/05/20 01:00:15;;;;;;;9.00;7.20;;;;;;;11.67;63.15;101406.47;5119107;28;20433;-65
2021/05/20 01:02:41;;;;;;;7.70;7.03;;;;;;;11.53;64.12;101409.75;5119701;28;20172;-66
2021/05/20 01:05:11;;;;;;;7.80;7.10;;;;;;;11.61;64.24;101412.47;5119288;27;20818;-66
2021/05/20 01:07:36;;;;;;;8.73;7.43;;;;;;;11.63;63.79;101409.00;5119403;28;20160;-66
2021/05/20 01:10:05;;;;;;;7.30;6.70;;;;;;;11.68;63.59;101411.72;5120043;28;20389;-66
2021/05/20 01:12:31;;;;;;;7.73;6.93;;;;;;;11.73;63.00;101412.66;5119026;28;20197;-65
2021/05/20 01:14:56;;;;;;;7.43;6.73;;;;;;;11.73;62.99;101419.59;5119650;28;20406;-65
2021/05/20 01:17:22;;;;;;;7.70;7.00;;;;;;;11.25;64.27;101424.91;5120386;28;20175;-65
2021/05/20 01:19:47;;;;;;;7.20;6.23;;;;;;;11.51;64.44;101421.88;5119477;28;20171;-65
2021/05/20 01:22:13;;;;;;;7.13;6.30;;;;;;;11.68;63.34;101423.91;5118400;28;20251;-65
2021/05/20 01:24:40;;;;;;;7.70;7.00;;;;;;;11.70;63.08;101424.78;5119299;28;20219;-65
2021/05/20 01:27:05;;;;;;;7.50;6.70;;;;;;;11.56;63.51;101435.88;5119139;28;20832;-65
2021/05/20 01:29:31;;;;;;;7.17;6.57;;;;;;;11.53;63.66;101448.00;5119356;28;20405;-65
2021/05/20 01:31:57;;;;;;;9.00;8.13;;;;;;;11.82;62.83;101439.78;5118875;28;20172;-66
2021/05/20 01:34:23;;;;;;;6.70;6.10;;;;;;;11.56;63.58;101440.25;5118920;28;20170;-65
2021/05/20 01:36:48;;;;;;;8.83;7.93;;;;;;;11.54;63.63;101447.16;5119593;28;20409;-66
2021/05/20 01:39:13;;;;;;;5.80;5.33;;;;;;;11.27;63.98;101454.53;5119105;28;20426;-66
2021/05/20 01:41:39;;;;;;;7.00;6.30;;;;;;;11.83;62.88;101449.41;5118905;28;20160;-65
2021/05/20 01:44:04;;;;;;;7.43;6.73;;;;;;;12.05;61.20;101445.41;5119387;28;20195;-65
2021/05/20 01:46:29;;;;;;;7.00;6.10;;;;;;;11.79;62.04;101448.47;5118951;28;20221;-65
2021/05/20 01:48:55;;;;;;;6.20;5.60;;;;;;;11.70;62.07;101441.34;5118773;28;20190;-65
2021/05/20 01:51:23;;;;;;;7.03;6.30;;;;;;;11.72;62.01;101450.09;5119088;28;20221;-66
2021/05/20 01:53:51;;;;;;;7.17;6.30;;;;;;;12.02;61.17;101451.44;5118827;28;20435;-66
2021/05/20 01:56:18;;;;;;;6.03;5.37;;;;;;;11.94;60.93;101451.31;5118767;28;20440;-65
2021/05/20 01:58:44;;;;;;;7.23;6.53;;;;;;;12.16;60.74;101451.66;5119080;28;20402;-66
2021/05/20 02:01:09;;;;;;;8.73;7.83;;;;;;;12.06;60.89;101450.66;5118527;28;20414;-65
2021/05/20 02:03:35;;;;;;;6.73;5.87;;;;;;;11.89;61.08;101446.84;5118520;28;20509;-65
2021/05/20 02:06:02;;;;;;;7.83;7.13;;;;;;;11.80;61.41;101451.09;5119149;28;20242;-65
2021/05/20 02:08:31;;;;;;;9.50;6.77;;;;;;;12.07;60.60;101441.97;5118627;28;20551;-64
2021/05/20 02:10:57;;;;;;;6.00;5.50;;;;;;;11.89;61.13;101446.84;5118367;28;20433;-66
2021/05/20 02:13:22;;;;;;;7.00;6.33;;;;;;;12.17;60.26;101442.09;5119368;28;20455;-65
2021/05/20 02:15:48;;;;;;;8.47;7.53;;;;;;;12.15;60.31;101443.78;5118493;28;20190;-65
2021/05/20 02:18:13;;;;;;;9.23;7.67;;;;;;;12.17;59.94;101442.97;5121892;28;20171;-64
2021/05/20 02:20:39;;;;;;;7.03;6.43;;;;;;;12.05;60.12;101441.03;5123405;28;20255;-64
2021/05/20 02:23:04;;;;;;;9.90;7.50;;;;;;;11.74;61.00;101437.03;5122544;28;20187;-64
2021/05/20 02:25:30;;;;;;;17.47;13.23;;;;;;;11.87;60.93;101445.97;5122423;28;20219;-64
2021/05/20 02:27:55;;;;;;;20.77;14.90;;;;;;;11.76;61.07;101441.44;5122956;28;20521;-64
2021/05/20 02:30:21;;;;;;;6.07;5.57;;;;;;;11.40;62.11;101447.78;5122551;28;20175;-65
2021/05/20 02:32:47;;;;;;;8.33;6.13;;;;;;;11.46;61.40;101445.31;5122374;28;20168;-65
2021/05/20 02:35:13;;;;;;;7.90;6.93;;;;;;;11.40;61.56;101441.72;5122999;28;20729;-64
2021/05/20 02:37:38;;;;;;;12.00;9.90;;;;;;;11.70;60.71;101441.34;5122277;28;20213;-65
2021/05/20 02:40:05;;;;;;;10.33;9.23;;;;;;;11.79;60.61;101441.47;5122354;28;20456;-65
2021/05/20 02:42:31;;;;;;;7.00;6.10;;;;;;;11.79;60.24;101440.63;5122524;28;20406;-65
2021/05/20 02:44:57;;;;;;;7.20;6.00;;;;;;;11.35;61.49;101444.25;5122352;28;20429;-66
2021/05/20 02:47:22;;;;;;;10.30;9.23;;;;;;;11.75;60.88;101444.91;5122304;28;20505;-65
2021/05/20 02:49:48;;;;;;;7.30;6.60;;;;;;;11.58;60.57;101449.88;5122837;28;20178;-64
2021/05/20 02:52:13;;;;;;;12.93;7.03;;;;;;;11.87;59.63;101448.59;5122044;28;20190;-65
2021/05/20 02:54:40;;;;;;;7.00;6.40;;;;;;;11.77;60.41;101443.22;5122046;28;20425;-65
2021/05/20 02:57:05;;;;;;;7.23;6.10;;;;;;;11.79;60.72;101444.09;5122280;28;20164;-66
2021/05/20 02:59:31;;;;;;;6.33;5.83;;;;;;;11.75;60.95;101438.81;5121865;28;20413;-65
2021/05/20 03:02:04;;;;;;;7.10;6.50;;;;;;;11.74;61.32;101448.38;5121961;28;20202;-65
2021/05/20 03:04:29;;;;;;;7.90;6.40;;;;;;;11.58;62.32;101449.88;5122420;28;20198;-65
2021/05/20 03:06:55;;;;;;;9.97;8.70;;;;;;;11.68;62.34;101450.91;5121906;28;20384;-64
2021/05/20 03:09:20;;;;;;;11.80;9.63;;;;;;;11.61;62.31;101438.59;5122036;27;20213;-66
2021/05/20 03:11:45;;;;;;;9.60;7.83;;;;;;;11.54;62.97;101447.16;5121960;28;20250;-65
2021/05/20 03:14:11;;;;;;;10.90;9.77;;;;;;;11.42;63.71;101451.34;5121626;28;20177;-67
2021/05/20 03:16:36;;;;;;;9.40;8.60;;;;;;;11.14;64.30;101449.94;5122553;28;20171;-65
2021/05/20 03:19:01;;;;;;;8.67;7.90;;;;;;;11.41;64.24;101448.69;5122316;28;20463;-65
2021/05/20 03:21:27;;;;;;;10.27;9.37;;;;;;;11.25;65.02;101450.16;5121526;28;20533;-64
2021/05/20 03:23:53;;;;;;;10.07;9.17;;;;;;;11.35;63.83;101453.78;5121219;28;20227;-66
2021/05/20 03:26:18;;;;;;;9.80;8.90;;;;;;;10.90;65.88;101456.44;5122034;28;20171;-65
2021/05/20 03:28:44;;;;;;;9.90;9.00;;;;;;;11.21;65.00;101461.38;5121421;28;20425;-66
2021/05/20 03:31:09;;;;;;;9.30;8.50;;;;;;;11.25;64.75;101457.97;5121294;28;20176;-65
2021/05/20 03:33:35;;;;;;;11.70;10.13;;;;;;;11.23;65.20;101452.72;5121857;28;20171;-65
2021/05/20 03:36:00;;;;;;;10.60;9.50;;;;;;;11.18;65.21;101462.19;5121220;28;20167;-65
2021/05/20 03:38:25;;;;;;;10.13;9.17;;;;;;;11.27;65.21;101462.38;5121014;28;20543;-65
2021/05/20 03:40:50;;;;;;;11.50;10.50;;;;;;;11.16;65.67;101455.19;5121481;28;20171;-65
2021/05/20 03:43:16;;;;;;;11.37;10.10;;;;;;;11.39;65.58;101466.94;5121023;28;20222;-66
2021/05/20 03:45:41;;;;;;;12.30;11.13;;;;;;;11.47;64.53;101459.22;5121323;28;20248;-66
2021/05/20 03:48:07;;;;;;;16.43;12.50;;;;;;;11.46;64.36;101467.94;5121811;28;20170;-65
2021/05/20 03:50:32;;;;;;;12.20;11.00;;;;;;;11.45;64.58;101463.56;5120494;28;20176;-65
2021/05/20 03:53:01;;;;;;;12.83;11.73;;;;;;;11.40;64.84;101457.38;5120997;28;20187;-65
2021/05/20 03:55:26;;;;;;;12.93;11.73;;;;;;;11.15;66.28;101458.66;5121648;28;20250;-65
2021/05/20 03:57:52;;;;;;;17.70;15.77;;;;;;;11.23;66.36;101462.28;5120941;28;20422;-65
2021/05/20 04:00:18;;;;;;;14.63;13.23;;;;;;;11.41;65.42;101464.38;5120882;28;20171;-65
2021/05/20 04:02:43;;;;;;;12.50;11.37;;;;;;;11.38;65.08;101459.06;5121071;28;20190;-64
2021/05/20 04:05:09;;;;;;;13.23;12.03;;;;;;;11.39;65.77;101458.22;5120849;27;20413;-65
2021/05/20 04:07:34;;;;;;;13.80;12.60;;;;;;;11.61;65.21;101451.66;5120895;27;20184;-66
2021/05/20 04:09:59;;;;;;;13.97;12.60;;;;;;;11.56;64.96;101454.16;5121473;28;20412;-65
2021/05/20 04:12:25;;;;;;;14.23;12.83;;;;;;;10.98;66.79;101460.94;5120526;28;20454;-65
2021/05/20 04:14:50;;;;;;;14.07;12.77;;;;;;;11.48;64.84;101458.38;5120636;28;20536;-65
2021/05/20 04:17:15;;;;;;;13.80;12.37;;;;;;;11.43;64.94;101458.31;5108661;28;20184;-65
2021/05/20 04:19:41;;;;;;;13.80;12.50;;;;;;;12.82;61.20;101458.63;5119410;28;20175;-65
2021/05/20 04:22:06;;;;;;;14.13;12.53;;;;;;;12.37;61.93;101458.94;5114993;28;20176;-65
2021/05/20 04:24:31;;;;;;;12.13;10.93;;;;;;;14.73;54.77;101447.06;5100393;28;20220;-64
2021/05/20 04:26:57;;;;;;;10.57;9.67;;;;;;;15.23;53.37;101448.09;5099876;28;20191;-64
2021/05/20 04:29:22;;;;;;;11.83;10.63;;;;;;;16.57;48.94;101443.59;5099913;28;20168;-65
2021/05/20 04:31:47;;;;;;;11.17;10.27;;;;;;;16.25;49.36;101449.81;5099632;28;20533;-65
2021/05/20 04:34:13;;;;;;;10.97;9.97;;;;;;;16.13;49.55;101454.25;5099534;28;20458;-65
2021/05/20 04:36:39;;;;;;;11.67;10.67;;;;;;;16.42;48.75;101447.16;5120744;28;20528;-65
2021/05/20 04:39:04;;;;;;;11.00;10.10;;;;;;;16.78;47.98;101454.03;5119722;28;20483;-66
2021/05/20 04:41:31;;;;;;;11.87;10.83;;;;;;;16.04;49.70;101464.78;5109276;28;20428;-65
2021/05/20 04:43:57;;;;;;;13.63;11.33;;;;;;;15.29;51.77;101465.63;5101139;28;20235;-65
2021/05/20 04:46:22;;;;;;;11.73;10.73;;;;;;;16.25;49.32;101460.34;5113802;28;20475;-65
2021/05/20 04:48:47;;;;;;;11.00;10.10;;;;;;;16.39;49.17;101465.59;5120144;28;20171;-66
2021/05/20 04:51:14;;;;;;;11.50;10.50;;;;;;;16.15;49.63;101468.25;5100539;28;20180;-66
2021/05/20 04:53:40;;;;;;;12.10;11.10;;;;;;;15.48;51.27;101477.91;5102348;28;20214;-66
2021/05/20 04:56:06;;;;;;;13.10;11.80;;;;;;;15.82;50.32;101482.34;5119967;28;20403;-66
2021/05/20 04:58:31;;;;;;;12.70;11.60;;;;;;;17.03;47.70;101479.41;5101981;28;20416;-64
2021/05/20 05:00:57;;;;;;;15.03;11.40;;;;;;;16.88;47.51;101477.69;5102987;28;20183;-65
2021/05/20 05:03:22;;;;;;;11.10;10.20;;;;;;;15.25;51.18;101482.22;5107928;28;20485;-65
2021/05/20 05:05:47;;;;;;;13.57;12.27;;;;;;;13.78;56.00;101490.16;5099935;28;20237;-65
2021/05/20 05:08:13;;;;;;;14.10;12.77;;;;;;;13.35;57.38;101494.97;5099229;28;20259;-65
2021/05/20 05:10:38;;;;;;;12.77;11.57;;;;;;;12.28;60.51;101492.78;5100350;28;20172;-64
2021/05/20 05:13:03;;;;;;;14.17;12.87;;;;;;;12.40;60.96;101498.19;5119700;28;20415;-65
2021/05/20 05:15:29;;;;;;;14.10;12.90;;;;;;;12.77;60.05;101498.69;5118696;28;20195;-65
2021/05/20 05:17:54;;;;;;;14.17;12.83;;;;;;;12.88;59.59;101493.59;5101829;28;20569;-64
2021/05/20 05:20:20;;;;;;;14.97;13.57;;;;;;;12.71;59.50;101493.38;5099209;28;20186;-66
2021/05/20 05:22:46;;;;;;;15.37;14.00;;;;;;;12.87;59.83;101491.84;5098586;28;20175;-65
2021/05/20 05:25:11;;;;;;;14.73;13.43;;;;;;;12.89;59.52;101492.72;5101359;28;20470;-65
2021/05/20 05:27:37;;;;;;;15.37;13.83;;;;;;;13.85;57.39;101498.09;5118589;27;20225;-65
2021/05/20 05:30:04;;;;;;;14.40;13.07;;;;;;;13.81;56.90;101497.19;5118992;28;20187;-64
2021/05/20 05:32:29;;;;;;;13.90;12.60;;;;;;;13.01;58.88;101492.00;5118991;28;20167;-65
2021/05/20 05:34:54;;;;;;;15.70;14.23;;;;;;;12.71;60.51;101497.75;5099914;28;20447;-66
2021/05/20 05:37:19;;;;;;;14.90;13.50;;;;;;;12.59;61.16;101501.06;5105789;28;20172;-64
2021/05/20 05:39:45;;;;;;;15.10;13.60;;;;;;;12.54;61.01;101501.03;5107522;28;20207;-65
2021/05/20 05:42:10;;;;;;;13.90;12.60;;;;;;;12.49;61.51;101507.00;5118240;28;20225;-65
2021/05/20 05:44:36;;;;;;;14.00;12.57;;;;;;;12.33;61.83;101509.44;5116623;28;20513;-66
2021/05/20 05:47:01;;;;;;;14.20;12.80;;;;;;;12.79;60.40;101504.81;5110967;28;20187;-66
2021/05/20 05:49:29;;;;;;;14.40;13.00;;;;;;;13.84;58.02;101510.31;5100957;28;20172;-65
2021/05/20 05:52:00;;;;;;;12.10;11.00;;;;;;;14.68;54.79;101493.44;5098298;28;20203;-64
2021/05/20 05:54:25;;;;;;;11.93;10.93;;;;;;;14.82;54.68;101496.97;5098382;28;20678;-65
2021/05/20 05:56:51;;;;;;;11.73;10.60;;;;;;;15.15;53.25;101498.00;5096815;28;20408;-65
2021/05/20 05:59:17;;;;;;;11.87;10.87;;;;;;;15.18;53.83;101493.59;5112679;28;20179;-65
2021/05/20 06:01:42;;;;;;;13.20;11.93;;;;;;;14.39;55.91;101507.22;5114502;28;20249;-65
2021/05/20 06:04:08;;;;;;;11.30;10.30;;;;;;;14.84;55.10;101504.00;5121666;28;20486;-64
2021/05/20 06:06:37;;;;;;;11.80;10.60;;;;;;;14.67;55.07;101499.56;5123319;28;20178;-65
2021/05/20 06:09:06;;;;;;;10.90;10.00;;;;;;;17.05;48.95;101485.53;5105789;27;20699;-66
2021/05/20 06:11:32;;;;;;;11.07;10.17;;;;;;;18.23;45.49;101490.84;5119036;27;20474;-67
2021/05/20 06:14:01;;;;;;;9.83;8.93;;;;;;;18.81;43.20;101482.22;5114250;28;20423;-68
2021/05/20 06:16:27;;;;;;;10.10;9.03;;;;;;;20.75;39.49;101477.31;5106143;28;20449;-66
2021/05/20 06:18:52;;;;;;;10.00;8.30;;;;;;;20.77;39.19;101483.47;5103115;28;20424;-66
2021/05/20 06:21:17;;;;;;;9.40;8.60;;;;;;;19.53;41.52;101493.56;5120835;27;20232;-64
2021/05/20 06:23:43;;;;;;;9.50;8.70;;;;;;;19.35;42.63;101499.16;5117154;28;20219;-67
2021/05/20 06:26:08;;;;;;;9.70;8.80;;;;;;;16.94;48.17;101509.28;5117979;28;20262;-66
2021/05/20 06:28:36;;;;;;;10.53;8.93;;;;;;;15.90;50.90;101513.88;5101989;28;20485;-66
2021/05/20 06:31:01;;;;;;;9.97;9.10;;;;;;;17.32;47.72;101505.59;5097430;28;20180;-66
2021/05/20 06:33:26;;;;;;;10.03;9.17;;;;;;;17.12;47.77;101509.22;5096959;28;20444;-66
2021/05/20 06:35:52;;;;;;;11.10;8.80;;;;;;;17.93;46.28;101503.44;5098607;28;20175;-65
2021/05/20 06:38:17;;;;;;;10.20;9.30;;;;;;;16.78;49.03;101503.19;5118912;28;20177;-66
2021/05/20 06:40:42;;;;;;;10.47;9.57;;;;;;;16.88;48.77;101510.16;5106906;28;20188;-65
2021/05/20 06:43:07;;;;;;;10.07;9.20;;;;;;;16.94;48.30;101504.91;5109690;28;20264;-65
2021/05/20 06:45:33;;;;;;;10.70;9.90;;;;;;;17.85;46.99;101504.31;5101250;28;20172;-65
2021/05/20 06:47:58;;;;;;;10.67;9.67;;;;;;;16.43;50.25;101512.09;5102225;28;20183;-66
2021/05/20 06:50:24;;;;;;;10.67;9.77;;;;;;;15.26;53.50;101507.63;5108883;28;20471;-65
2021/05/20 06:52:53;;;;;;;11.97;10.93;;;;;;;14.81;55.05;101510.97;5097411;28;20165;-66
2021/05/20 06:55:18;;;;;;;10.57;9.70;;;;;;;15.07;54.38;101512.84;5101430;28;20177;-64
2021/05/20 07:00:27;;;;;;;9.10;8.30;;;;;;;17.75;46.79;101512.31;5097478;28;20302;-66
2021/05/20 07:02:53;;;;;;;10.27;9.37;;;;;;;16.46;50.34;101518.19;5098247;28;20500;-65
2021/05/20 07:05:18;;;;;;;10.00;9.10;;;;;;;15.47;52.50;101510.31;5103570;28;20214;-65
2021/05/20 07:07:43;;;;;;;11.10;9.20;;;;;;;15.56;52.82;101514.72;5121799;28;20536;-65
2021/05/20 07:10:09;;;;;;;10.80;9.80;;;;;;;15.19;53.53;101509.34;5123495;27;20250;-65
2021/05/20 07:12:35;;;;;;;9.23;8.43;;;;;;;14.94;54.75;101522.41;5121403;27;20192;-64
2021/05/20 07:15:02;;;;;;;9.70;8.60;;;;;;;17.05;48.43;101514.50;5111546;28;20194;-66
2021/05/20 07:17:28;;;;;;;8.30;7.50;;;;;;;19.67;41.44;101495.13;5101458;28;20212;-68
2021/05/20 07:19:53;;;;;;;10.57;7.30;;;;;;;19.97;40.15;101499.06;5118436;28;20808;-67
2021/05/20 07:22:18;;;;;;;7.63;6.93;;;;;;;19.82;40.56;101489.63;5106713;28;20476;-66
2021/05/20 07:24:44;;;;;;;14.40;12.93;;;;;;;19.52;42.43;101494.50;5120376;28;20229;-67
2021/05/20 07:27:10;;;;;;;7.10;6.50;;;;;;;17.44;46.14;101504.63;5102460;28;20187;-66
2021/05/20 07:29:35;;;;;;;7.50;6.77;;;;;;;17.45;45.38;101504.59;5101118;28;20414;-66
2021/05/20 07:32:00;;;;;;;6.70;6.10;;;;;;;17.29;46.25;101508.22;5101569;28;20179;-65
2021/05/20 07:34:26;;;;;;;8.07;7.37;;;;;;;17.37;46.10;101505.56;5112136;28;20240;-65
2021/05/20 07:36:52;;;;;;;6.70;6.10;;;;;;;17.08;45.45;101509.25;5105343;28;20168;-64
2021/05/20 07:39:17;;;;;;;6.87;6.07;;;;;;;18.21;42.79;101504.03;5110647;28;20188;-65
2021/05/20 07:41:44;;;;;;;6.80;5.90;;;;;;;19.95;39.01;101500.00;5118884;28;20164;-66
2021/05/20 07:44:10;;;;;;;9.23;8.40;;;;;;;21.01;36.24;101495.31;5118596;28;20238;-65
2021/05/20 07:46:35;;;;;;;6.43;5.83;;;;;;;19.95;37.01;101505.28;5108427;28;20430;-66
2021/05/20 07:49:00;;;;;;;6.63;6.03;;;;;;;18.57;40.20;101506.31;5111099;28;20175;-66
2021/05/20 07:51:26;;;;;;;5.93;5.23;;;;;;;17.90;42.30;101508.69;5100959;28;20229;-66
2021/05/20 07:53:51;;;;;;;6.20;5.70;;;;;;;17.23;44.37;101508.28;5099869;28;20502;-66
2021/05/20 07:56:16;;;;;;;6.50;5.90;;;;;;;16.83;46.96;101511.94;5103664;28;20190;-66
2021/05/20 07:58:42;;;;;;;7.40;6.53;;;;;;;15.89;48.21;101506.88;5100097;28;20184;-65
2021/05/20 08:01:09;;;;;;;6.60;6.00;;;;;;;15.88;48.87;101511.25;5099615;28;20180;-64
2021/05/20 08:03:45;;;;;;;7.20;6.60;;;;;;;15.54;49.71;101519.06;5099901;28;20253;-67
2021/05/20 08:06:14;;;;;;;6.80;6.20;;;;;;;17.05;46.99;101517.13;5106099;28;20474;-67
2021/05/20 08:08:52;;;;;;;8.27;7.57;;;;;;;19.93;39.88;101499.13;5116974;27;20650;-66
2021/05/20 08:11:17;;;;;;;9.47;6.83;;;;;;;21.90;35.32;101494.13;5107243;28;20459;-66
2021/05/20 08:13:43;;;;;;;5.37;4.87;;;;;;;18.87;40.92;101499.75;5099233;28;20438;-66
2021/05/20 08:16:09;;;;;;;5.53;5.13;;;;;;;19.18;39.59;101488.81;5099142;28;20199;-67
2021/05/20 08:18:34;;;;;;;5.37;4.87;;;;;;;18.35;41.46;101495.97;5099905;28;20175;-65
2021/05/20 08:21:01;;;;;;;6.33;4.47;;;;;;;20.67;36.69;101495.13;5099709;28;20221;-65
2021/05/20 08:23:26;;;;;;;4.47;4.10;;;;;;;21.90;33.63;101482.66;5105445;28;20466;-65
2021/05/20 08:25:52;;;;;;;6.33;5.00;;;;;;;20.64;35.76;101481.94;5109950;28;20516;-66
2021/05/20 08:28:17;;;;;;;4.37;4.07;;;;;;;20.82;35.99;101494.84;5107627;28;20632;-66
2021/05/20 08:30:43;;;;;;;4.70;4.20;;;;;;;21.02;35.52;101486.44;5102990;28;20207;-65
2021/05/20 08:33:08;;;;;;;4.87;4.37;;;;;;;18.94;39.53;101492.66;5102062;28;20216;-64
2021/05/20 08:35:33;;;;;;;4.90;4.50;;;;;;;20.10;36.94;101489.13;5102984;28;20313;-65
2021/05/20 08:37:59;;;;;;;5.80;5.30;;;;;;;20.45;35.73;101490.25;5102711;28;20251;-66
2021/05/20 08:40:25;;;;;;;5.20;4.77;;;;;;;19.63;37.27;101493.44;5100145;28;20627;-66
2021/05/20 08:42:50;;;;;;;5.23;4.70;;;;;;;18.59;39.86;101493.94;5100203;28;20179;-66
2021/05/20 08:45:18;;;;;;;4.90;4.40;;;;;;;20.14;36.97;101485.53;5103953;28;20208;-65
2021/05/20 08:47:45;;;;;;;5.10;4.70;;;;;;;20.68;35.73;101473.91;5110108;28;20188;-65
2021/05/20 08:50:12;;;;;;;5.10;4.60;;;;;;;22.52;32.46;101465.94;5100532;28;20425;-65
2021/05/20 08:52:41;;;;;;;5.30;4.10;;;;;;;22.46;32.91;101464.34;5099221;28;20405;-65
2021/05/20 08:55:15;;;;;;;5.80;4.60;;;;;;;20.55;36.43;101471.53;5105262;27;20486;-66
2021/05/20 08:57:41;;;;;;;6.23;4.40;;;;;;;19.09;39.72;101476.63;5107435;28;20506;-66
2021/05/20 09:00:09;;;;;;;4.90;4.50;;;;;;;21.23;34.16;101470.97;5099121;28;20426;-65
2021/05/20 09:02:34;;;;;;;4.60;4.20;;;;;;;20.50;35.24;101469.84;5109581;28;20709;-67
2021/05/20 09:05:03;;;;;;;5.50;4.80;;;;;;;22.04;32.98;101461.91;5100921;28;20462;-67
2021/05/20 09:07:31;;;;;;;4.87;4.37;;;;;;;23.09;31.97;101463.38;5107249;28;20228;-68
2021/05/20 09:10:19;;;;;;;5.40;4.30;;;;;;;21.65;33.09;101464.66;5098558;28;20871;-69
2021/05/20 09:12:46;;;;;;;5.13;4.73;;;;;;;19.35;37.40;101472.72;5110010;28;20450;-68
2021/05/20 09:15:26;;;;;;;5.10;4.63;;;;;;;18.57;40.06;101482.53;5108201;28;20512;-68
2021/05/20 09:17:52;;;;;;;5.37;4.57;;;;;;;18.42;40.81;101481.81;5098626;28;20446;-68
2021/05/20 09:20:18;;;;;;;5.50;5.00;;;;;;;20.19;37.80;101462.50;5098873;28;20453;-68
2021/05/20 09:22:44;;;;;;;5.67;5.17;;;;;;;22.15;33.74;101464.25;5107119;28;20468;-67
2021/05/20 09:25:11;;;;;;;5.30;4.90;;;;;;;22.63;32.68;101452.34;5118752;27;20492;-68
2021/05/20 09:27:45;;;;;;;4.50;4.10;;;;;;;21.44;32.48;101461.63;5103118;28;20455;-66
2021/05/20 09:30:18;;;;;;;6.50;6.00;;;;;;;20.62;35.76;101459.88;5098609;28;20421;-66
2021/05/20 09:32:59;;;;;;;4.93;4.43;;;;;;;19.30;38.93;101466.63;5105996;28;20445;-66
2021/05/20 09:35:46;;;;;;;5.30;4.90;;;;;;;18.48;39.88;101471.19;5118827;28;20426;-66
2021/05/20 09:38:20;;;;;;;5.10;4.70;;;;;;;18.24;40.63;101471.44;5108630;28;20709;-66
2021/05/20 09:40:58;;;;;;;4.73;4.33;;;;;;;17.19;44.53;101472.31;5098258;28;20433;-66
2021/05/20 09:43:32;;;;;;;6.40;5.20;;;;;;;16.47;46.10;101488.38;5103965;28;20544;-67
2021/05/20 09:46:03;;;;;;;5.97;5.47;;;;;;;16.64;48.18;101485.69;5098413;28;20410;-66
2021/05/20 09:48:37;;;;;;;6.00;5.50;;;;;;;16.77;49.07;101486.50;5098338;28;20444;-67
2021/05/20 09:51:03;;;;;;;6.20;5.70;;;;;;;16.71;50.88;101478.66;5114642;28;20417;-68
2021/05/20 09:53:29;;;;;;;5.77;5.27;;;;;;;17.07;48.85;101475.88;5102051;28;20852;-67
2021/05/20 09:55:59;;;;;;;6.83;6.13;;;;;;;17.37;46.45;101469.53;5101512;28;20446;-67
2021/05/20 09:58:31;;;;;;;6.00;5.40;;;;;;;17.75;44.95;101463.09;5098627;28;20171;-66
2021/05/20 10:00:58;;;;;;;6.03;5.07;;;;;;;19.62;40.12;101459.94;5098026;28;20494;-67
2021/05/20 10:03:24;;;;;;;5.40;4.90;;;;;;;20.84;37.66;101458.56;5102197;28;20554;-66
2021/05/20 10:05:52;;;;;;;4.97;4.57;;;;;;;22.13;34.54;101447.50;5112541;28;20425;-66
2021/05/20 10:08:21;;;;;;;5.13;4.70;;;;;;;20.32;36.58;101464.91;5101338;28;20566;-66
2021/05/20 10:10:51;;;;;;;7.40;5.47;;;;;;;19.12;38.48;101459.81;5109502;28;20405;-65
2021/05/20 10:13:28;;;;;;;5.23;4.80;;;;;;;18.69;40.89;101463.91;5118750;28;20405;-65
2021/05/20 10:15:54;;;;;;;5.80;5.20;;;;;;;18.24;41.38;101471.44;5116028;28;20686;-64
2021/05/20 10:18:24;;;;;;;6.63;6.03;;;;;;;17.44;44.89;101468.63;5105084;28;20527;-65
2021/05/20 10:20:53;;;;;;;5.37;4.97;;;;;;;17.72;44.04;101464.88;5103020;28;20480;-65
2021/05/20 10:23:22;;;;;;;5.50;5.10;;;;;;;17.66;44.14;101460.53;5098894;28;20472;-64
2021/05/20 10:25:50;;;;;;;5.50;5.10;;;;;;;19.08;41.04;101450.19;5101503;28;20493;-65
2021/05/20 10:28:17;;;;;;;5.90;5.23;;;;;;;20.21;38.59;101451.00;5113330;28;20856;-65
2021/05/20 10:30:45;;;;;;;5.37;4.87;;;;;;;20.41;37.42;101450.63;5104405;28;20491;-66
2021/05/20 10:33:11;;;;;;;5.77;5.27;;;;;;;20.15;36.51;101438.78;5099661;28;21167;-66
2021/05/20 10:35:42;;;;;;;5.43;4.93;;;;;;;19.81;38.23;101442.03;5110651;28;20437;-66
2021/05/20 10:38:08;;;;;;;5.33;4.83;;;;;;;20.37;37.76;101436.56;5106232;28;20428;-66
2021/05/20 10:40:34;;;;;;;6.50;5.40;;;;;;;18.80;39.81;101440.00;5101824;28;20406;-65
2021/05/20 10:43:17;;;;;;;6.17;5.67;;;;;;;18.88;40.66;101438.16;5102897;28;20437;-67
2021/05/20 10:46:04;;;;;;;5.57;5.00;;;;;;;17.92;42.12;101433.94;5100865;28;20278;-66
2021/05/20 10:48:30;;;;;;;5.10;4.60;;;;;;;18.36;40.66;101426.47;5101353;28;20452;-66
2021/05/20 10:51:01;;;;;;;6.10;5.50;;;;;;;18.93;41.27;101430.16;5100670;28;20418;-66
2021/05/20 10:53:41;;;;;;;5.80;5.20;;;;;;;18.05;41.33;101434.72;5102874;28;20194;-66
2021/05/20 10:56:08;;;;;;;5.83;5.03;;;;;;;18.79;39.98;101427.66;5109412;28;21193;-66
2021/05/20 10:58:36;;;;;;;5.90;5.30;;;;;;;18.63;40.80;101424.34;5119653;28;20411;-67
2021/05/20 11:01:02;;;;;;;5.33;4.83;;;;;;;18.59;40.38;101423.53;5103828;28;20438;-65
2021/05/20 11:03:46;;;;;;;5.77;5.10;;;;;;;18.38;40.97;101424.66;5101280;28;20429;-65
2021/05/20 11:06:11;;;;;;;6.17;5.50;;;;;;;18.27;42.16;101427.44;5101416;28;20846;-66
2021/05/20 11:08:36;;;;;;;11.90;10.80;;;;;;;18.14;43.78;101425.81;5111472;28;20440;-66
2021/05/20 11:11:02;;;;;;;7.43;6.73;;;;;;;17.80;43.76;101424.34;5113504;27;20183;-67
2021/05/20 11:13:42;;;;;;;8.90;7.33;;;;;;;17.36;45.48;101435.28;5121514;28;20164;-66
2021/05/20 11:16:19;;;;;;;10.37;8.70;;;;;;;17.31;46.47;101430.91;5101021;28;20191;-67
2021/05/20 11:18:48;;;;;;;7.90;7.30;;;;;;;17.62;45.15;101422.75;5101213;28;20438;-66
2021/05/20 11:21:14;;;;;;;10.33;8.10;;;;;;;18.09;44.00;101417.06;5102157;28;20424;-65